Time;durP1;ratioP1;P1;durP2;ratioP2;P2;SDS_P1;SDS_P2;PMS_P1;PMS_P2;Temp;Humidity;BMP_temperature;BMP_pressure;BME280_temperature;BME280_humidity;BME280_pressure;Samples;Min_cycle;Max_cycle;Signal;HPM_P1;HPM_P2
2022/11/29 00:01:00;;;;;;;127.93;35.35;;;8.30;95.40;;;;;;5091950;28;20401;-93
2022/11/29 00:03:27;;;;;;;135.18;36.72;;;8.20;95.40;;;;;;5090075;28;20392;-92
2022/11/29 00:05:54;;;;;;;348.13;46.58;;;8.20;95.50;;;;;;5091452;28;20526;-92
2022/11/29 00:08:20;;;;;;;151.02;33.60;;;8.20;95.60;;;;;;5090213;28;20431;-92
2022/11/29 00:10:46;;;;;;;147.18;36.65;;;8.20;95.50;;;;;;5091988;28;20801;-91
2022/11/29 00:13:12;;;;;;;152.05;37.53;;;8.00;95.50;;;;;;5090301;28;20408;-91
2022/11/29 00:15:38;;;;;;;258.50;41.40;;;8.20;95.50;;;;;;5091278;28;20509;-93
2022/11/29 00:18:05;;;;;;;159.65;35.28;;;8.10;95.50;;;;;;5091108;28;20412;-91
2022/11/29 00:20:33;;;;;;;101.10;33.08;;;8.10;95.50;;;;;;5106902;28;20405;-92
2022/11/29 00:22:58;;;;;;;147.32;38.47;;;8.30;95.50;;;;;;5108684;28;20393;-90
2022/11/29 00:25:25;;;;;;;127.55;36.40;;;8.10;95.60;;;;;;5089336;28;20503;-92
2022/11/29 00:27:51;;;;;;;92.28;31.77;;;8.20;95.60;;;;;;5091734;28;20475;-93
2022/11/29 00:30:17;;;;;;;124.22;35.22;;;8.10;95.90;;;;;;5089709;28;20492;-91
2022/11/29 00:32:43;;;;;;;104.33;33.53;;;8.10;95.60;;;;;;5090945;28;20408;-91
2022/11/29 00:35:08;;;;;;;87.10;31.13;;;8.10;95.50;;;;;;5090339;28;20401;-91
2022/11/29 00:37:34;;;;;;;199.90;41.20;;;8.00;95.50;;;;;;5090649;28;20412;-91
2022/11/29 00:40:00;;;;;;;109.30;33.43;;;8.00;95.50;;;;;;5107994;28;20407;-92
2022/11/29 00:42:25;;;;;;;104.63;33.85;;;8.00;95.50;;;;;;5089385;28;20397;-92
2022/11/29 00:44:51;;;;;;;109.20;34.45;;;8.00;95.50;;;;;;5108703;28;20486;-91
2022/11/29 00:47:17;;;;;;;105.77;32.77;;;8.00;95.50;;;;;;5089118;28;20393;-92
2022/11/29 00:49:42;;;;;;;115.13;35.05;;;8.00;95.50;;;;;;5091377;28;20842;-90
2022/11/29 00:52:08;;;;;;;105.88;33.60;;;8.00;95.40;;;;;;5089377;28;20404;-91
2022/11/29 00:54:34;;;;;;;185.97;41.37;;;8.00;95.50;;;;;;5089901;28;20388;-92
2022/11/29 00:56:59;;;;;;;142.90;38.25;;;8.00;95.60;;;;;;5090352;28;20829;-91
2022/11/29 00:59:25;;;;;;;131.93;38.87;;;7.90;95.60;;;;;;5106630;28;20409;-91
2022/11/29 01:01:50;;;;;;;114.37;35.53;;;7.90;96.00;;;;;;5091275;28;20897;-92
2022/11/29 01:04:16;;;;;;;123.72;36.08;;;8.10;95.70;;;;;;5088504;28;20434;-91
2022/11/29 01:06:42;;;;;;;119.65;36.67;;;8.00;95.60;;;;;;5091287;28;20495;-92
2022/11/29 01:09:07;;;;;;;125.30;32.93;;;8.00;95.50;;;;;;5105610;28;20886;-92
2022/11/29 01:11:34;;;;;;;107.47;31.13;;;7.90;95.50;;;;;;5108250;28;20947;-93
2022/11/29 01:14:02;;;;;;;103.38;32.20;;;7.90;95.40;;;;;;5089750;28;20451;-92
2022/11/29 01:16:29;;;;;;;130.55;36.13;;;7.90;95.40;;;;;;5106552;28;21055;-91
2022/11/29 01:18:55;;;;;;;109.25;33.17;;;7.90;95.50;;;;;;5090303;28;20431;-91
2022/11/29 01:21:23;;;;;;;186.00;41.53;;;7.90;95.50;;;;;;5089000;28;20400;-91
2022/11/29 01:23:50;;;;;;;105.28;33.55;;;7.80;95.50;;;;;;5091275;28;20393;-91
2022/11/29 01:26:19;;;;;;;95.15;31.90;;;7.90;95.50;;;;;;5088822;28;20747;-93
2022/11/29 01:28:48;;;;;;;242.40;42.55;;;7.80;95.50;;;;;;5090917;28;20392;-91
2022/11/29 01:31:25;;;;;;;92.80;33.60;;;8.00;95.70;;;;;;5089113;28;20585;-91
2022/11/29 01:33:56;;;;;;;207.40;40.30;;;7.80;95.60;;;;;;5089343;28;20409;-91
2022/11/29 01:36:23;;;;;;;84.70;31.92;;;7.80;95.50;;;;;;5090273;28;20429;-93
2022/11/29 01:38:48;;;;;;;152.00;36.65;;;7.80;95.50;;;;;;5089087;28;20391;-92
2022/11/29 01:41:35;;;;;;;97.85;32.67;;;7.80;95.60;;;;;;5090492;28;21164;-92
2022/11/29 01:44:06;;;;;;;93.73;31.67;;;7.70;95.50;;;;;;5088875;28;20416;-91
2022/11/29 01:46:34;;;;;;;70.95;28.35;;;7.80;95.60;;;;;;5090060;28;20407;-92
2022/11/29 01:49:14;;;;;;;107.68;33.17;;;7.70;95.50;;;;;;5089183;28;20404;-91
2022/11/29 01:51:46;;;;;;;149.35;37.28;;;7.70;95.50;;;;;;5088560;28;20408;-91
2022/11/29 01:54:13;;;;;;;103.47;33.30;;;7.70;95.60;;;;;;5106942;28;20404;-91
2022/11/29 01:56:40;;;;;;;154.13;34.30;;;7.70;95.60;;;;;;5087752;28;20481;-93
2022/11/29 01:59:10;;;;;;;120.22;33.80;;;7.70;95.50;;;;;;5090580;28;20924;-91
2022/11/29 02:01:36;;;;;;;238.17;40.40;;;7.70;95.60;;;;;;5105979;28;20821;-90
2022/11/29 02:04:01;;;;;;;101.83;33.90;;;7.80;95.50;;;;;;5089405;28;20419;-91
2022/11/29 02:06:28;;;;;;;106.63;30.80;;;7.70;95.60;;;;;;5088650;28;20537;-92
2022/11/29 02:08:53;;;;;;;86.60;31.10;;;7.60;95.50;;;;;;5087908;28;20473;-92
2022/11/29 02:11:40;;;;;;;93.37;31.83;;;7.60;95.50;;;;;;5089920;28;20890;-92
2022/11/29 02:14:33;;;;;;;102.88;31.27;;;7.60;95.60;;;;;;5104985;28;20400;-91
2022/11/29 02:17:40;;;;;;;127.80;35.00;;;7.60;95.50;;;;;;5085769;28;20429;-92
2022/11/29 02:20:42;;;;;;;97.15;32.05;;;7.50;95.50;;;;;;5056134;28;20429;-91
2022/11/29 02:23:32;;;;;;;89.88;31.38;;;7.50;95.40;;;;;;5085120;28;20950;-91
2022/11/29 02:26:30;;;;;;;126.65;30.17;;;7.50;95.40;;;;;;5085055;28;20524;-91
2022/11/29 02:29:28;;;;;;;160.43;28.65;;;7.40;95.20;;;;;;5086698;28;20420;-92
2022/11/29 02:32:31;;;;;;;83.57;27.02;;;7.40;95.20;;;;;;5068292;28;20413;-91
2022/11/29 02:35:09;;;;;;;104.83;30.63;;;7.30;95.20;;;;;;5084771;28;20414;-92
2022/11/29 02:38:08;;;;;;;146.45;33.30;;;7.30;95.40;;;;;;5086212;28;20421;-92
2022/11/29 02:40:37;;;;;;;114.38;30.50;;;7.30;95.40;;;;;;5085024;28;20493;-91
2022/11/29 02:43:24;;;;;;;103.40;29.55;;;7.30;95.40;;;;;;5085305;28;20908;-93
2022/11/29 02:45:58;;;;;;;117.25;30.67;;;7.30;95.50;;;;;;5085884;28;20957;-93
2022/11/29 02:48:39;;;;;;;105.55;29.67;;;7.20;95.50;;;;;;5067717;28;20943;-92
2022/11/29 02:51:33;;;;;;;120.37;30.33;;;7.20;95.40;;;;;;5069644;28;21068;-93
2022/11/29 02:54:12;;;;;;;94.50;26.43;;;7.20;95.40;;;;;;5069269;28;20965;-90
2022/11/29 02:56:55;;;;;;;84.10;26.60;;;7.20;95.30;;;;;;5084276;28;20916;-92
2022/11/29 02:59:24;;;;;;;93.30;28.67;;;7.10;95.30;;;;;;5069526;28;20424;-92
2022/11/29 03:02:05;;;;;;;78.78;26.08;;;7.00;95.40;;;;;;5083938;28;20418;-92
2022/11/29 03:04:54;;;;;;;72.13;26.80;;;7.00;95.50;;;;;;5068488;28;20402;-92
2022/11/29 03:07:25;;;;;;;63.65;25.00;;;7.00;95.40;;;;;;5068826;28;20416;-92
2022/11/29 03:10:16;;;;;;;66.00;25.50;;;7.00;95.40;;;;;;5084160;28;20442;-92
2022/11/29 03:12:48;;;;;;;63.90;23.67;;;6.90;95.50;;;;;;5086522;28;20749;-93
2022/11/29 03:15:29;;;;;;;81.13;26.13;;;6.90;95.40;;;;;;5067540;28;20402;-90
2022/11/29 03:17:54;;;;;;;94.60;27.73;;;6.90;95.30;;;;;;5086699;28;20410;-94
2022/11/29 03:20:26;;;;;;;73.50;26.13;;;6.80;95.60;;;;;;5089282;28;20428;-93
2022/11/29 03:23:19;;;;;;;68.88;26.75;;;6.80;95.60;;;;;;5087702;28;20413;-92
2022/11/29 03:26:00;;;;;;;64.32;25.65;;;6.80;95.60;;;;;;5089642;28;20908;-92
2022/11/29 03:28:32;;;;;;;69.43;26.73;;;6.80;95.50;;;;;;5072250;28;20927;-92
2022/11/29 03:31:11;;;;;;;64.77;24.40;;;6.80;95.60;;;;;;5069908;28;20398;-92
2022/11/29 03:33:48;;;;;;;50.40;22.40;;;6.70;95.40;;;;;;5071620;28;20434;-92
2022/11/29 03:36:32;;;;;;;58.85;23.45;;;6.70;95.40;;;;;;5069145;28;20426;-92
2022/11/29 03:39:04;;;;;;;68.70;24.75;;;6.70;95.50;;;;;;5088243;28;20411;-92
2022/11/29 03:41:45;;;;;;;79.63;26.67;;;6.60;95.50;;;;;;5070923;28;20398;-91
2022/11/29 03:44:18;;;;;;;63.03;25.53;;;6.60;95.40;;;;;;5070393;28;20448;-90
2022/11/29 03:47:05;;;;;;;60.95;22.92;;;6.60;95.50;;;;;;5089451;28;20921;-91
2022/11/29 03:49:43;;;;;;;51.28;21.17;;;6.50;95.30;;;;;;5070568;28;20405;-91
2022/11/29 03:52:36;;;;;;;50.65;21.73;;;6.50;95.60;;;;;;5088287;28;20917;-92
2022/11/29 03:55:17;;;;;;;50.45;22.25;;;6.50;95.30;;;;;;5072261;28;20900;-91
2022/11/29 03:58:10;;;;;;;58.08;22.67;;;6.40;95.30;;;;;;5070293;28;20410;-91
2022/11/29 04:00:47;;;;;;;60.58;21.20;;;6.40;95.40;;;;;;5089188;28;20532;-93
2022/11/29 04:03:31;;;;;;;58.95;21.73;;;6.40;95.50;;;;;;5088421;28;20843;-91
2022/11/29 04:06:15;;;;;;;62.33;22.00;;;6.40;95.50;;;;;;5070185;28;20429;-92
2022/11/29 04:09:11;;;;;;;63.73;22.13;;;6.30;95.50;;;;;;5071675;28;20973;-91
2022/11/29 04:12:02;;;;;;;60.22;23.30;;;6.30;95.60;;;;;;5071362;28;20780;-92
2022/11/29 04:14:47;;;;;;;95.60;27.92;;;6.30;95.60;;;;;;5043338;28;20440;-94
2022/11/29 04:17:42;;;;;;;229.85;31.48;;;6.30;95.70;;;;;;5088580;28;20471;-93
2022/11/29 04:20:49;;;;;;;66.60;21.00;;;6.30;95.70;;;;;;5087425;28;20440;-91
2022/11/29 04:23:49;;;;;;;65.40;21.73;;;6.30;95.70;;;;;;5069784;28;20932;-92
2022/11/29 04:26:50;;;;;;;48.65;19.65;;;6.20;95.40;;;;;;5088827;28;20502;-92
2022/11/29 04:29:40;;;;;;;60.20;20.92;;;6.20;95.60;;;;;;5086930;28;20422;-91
2022/11/29 04:32:24;;;;;;;71.45;21.27;;;6.10;95.50;;;;;;5086303;28;20433;-92
2022/11/29 04:35:17;;;;;;;271.73;35.85;;;6.10;95.50;;;;;;5088352;28;20414;-91
2022/11/29 04:38:01;;;;;;;62.08;21.20;;;6.10;95.70;;;;;;5087165;28;20414;-91
2022/11/29 04:40:30;;;;;;;84.35;22.75;;;6.10;95.70;;;;;;5086510;28;20417;-91
2022/11/29 04:43:17;;;;;;;77.32;20.00;;;6.00;95.60;;;;;;5088288;28;20927;-92
2022/11/29 04:46:01;;;;;;;101.82;20.23;;;6.00;95.60;;;;;;5087175;28;20920;-90
2022/11/29 04:48:49;;;;;;;81.55;19.92;;;6.00;95.60;;;;;;5087344;28;20432;-91
2022/11/29 04:51:33;;;;;;;96.35;20.77;;;6.00;95.60;;;;;;5071089;28;20726;-91
2022/11/29 04:54:10;;;;;;;94.00;23.75;;;6.00;95.70;;;;;;5086289;28;20417;-91
2022/11/29 04:56:44;;;;;;;98.82;24.35;;;6.00;95.90;;;;;;5071135;28;20509;-92
2022/11/29 04:59:42;;;;;;;95.40;25.58;;;6.00;95.80;;;;;;5070087;28;20406;-91
2022/11/29 05:02:35;;;;;;;94.60;26.58;;;6.00;96.00;;;;;;5085959;28;20417;-92
2022/11/29 05:05:29;;;;;;;115.27;24.80;;;6.00;96.00;;;;;;5088188;28;20449;-91
2022/11/29 05:08:33;;;;;;;81.85;23.95;;;6.00;95.90;;;;;;5086633;28;20927;-91
2022/11/29 05:11:12;;;;;;;87.93;25.08;;;6.10;95.90;;;;;;5085742;28;20406;-91
2022/11/29 05:14:19;;;;;;;91.45;24.92;;;6.00;95.80;;;;;;5070803;28;20843;-91
2022/11/29 05:17:28;;;;;;;74.25;23.67;;;6.00;95.80;;;;;;5069717;28;20473;-90
2022/11/29 05:20:11;;;;;;;69.88;21.67;;;5.80;95.80;;;;;;5071384;28;20428;-92
2022/11/29 05:23:10;;;;;;;83.95;24.13;;;6.00;95.80;;;;;;5087546;28;20421;-92
2022/11/29 05:25:45;;;;;;;68.07;23.30;;;6.00;95.70;;;;;;5070020;28;20493;-92
2022/11/29 05:28:41;;;;;;;59.28;20.73;;;6.00;95.80;;;;;;5068747;28;20433;-92
2022/11/29 05:31:20;;;;;;;58.20;21.17;;;6.00;95.70;;;;;;5087581;28;20463;-92
2022/11/29 05:34:10;;;;;;;66.32;23.08;;;6.00;95.80;;;;;;5085624;28;20406;-91
2022/11/29 05:36:58;;;;;;;67.45;23.48;;;5.90;95.60;;;;;;5085612;28;20479;-91
2022/11/29 05:39:54;;;;;;;78.95;26.38;;;5.90;95.50;;;;;;5086832;28;20464;-92
2022/11/29 05:42:37;;;;;;;55.70;22.67;;;6.00;95.70;;;;;;5015843;28;20399;-91
2022/11/29 05:45:29;;;;;;;68.05;24.67;;;5.90;95.60;;;;;;5068871;28;20414;-92
2022/11/29 05:47:59;;;;;;;59.53;24.83;;;5.90;95.70;;;;;;5082260;28;20413;-92
2022/11/29 05:50:40;;;;;;;63.00;26.03;;;5.90;95.70;;;;;;5067946;28;20900;-91
2022/11/29 05:53:23;;;;;;;104.18;34.67;;;5.90;95.80;;;;;;5086592;28;20822;-92
2022/11/29 05:56:07;;;;;;;63.42;26.60;;;5.90;95.90;;;;;;5069495;28;20418;-90
2022/11/29 05:58:57;;;;;;;51.20;23.98;;;5.80;95.70;;;;;;5100352;28;20432;-93
2022/11/29 06:01:24;;;;;;;52.45;23.63;;;5.80;95.70;;;;;;5089935;28;20591;-92
2022/11/29 06:04:03;;;;;;;60.72;26.10;;;5.80;95.60;;;;;;5087847;28;20495;-92
2022/11/29 06:06:50;;;;;;;74.18;28.77;;;5.60;95.50;;;;;;5089316;28;20412;-92
2022/11/29 06:09:25;;;;;;;70.55;29.70;;;5.80;95.80;;;;;;5090048;28;20391;-92
2022/11/29 06:11:56;;;;;;;101.25;32.00;;;5.70;95.80;;;;;;5087967;28;20431;-91
2022/11/29 06:14:45;;;;;;;73.45;28.17;;;5.80;95.90;;;;;;5089694;28;20900;-91
2022/11/29 06:17:31;;;;;;;85.47;27.77;;;5.70;95.90;;;;;;5084120;28;20544;-91
2022/11/29 06:20:25;;;;;;;89.32;28.17;;;5.80;95.90;;;;;;5084789;28;20777;-92
2022/11/29 06:23:00;;;;;;;107.35;27.58;;;5.90;95.90;;;;;;5069507;28;20410;-91
2022/11/29 06:25:47;;;;;;;86.80;27.87;;;5.80;95.90;;;;;;5067778;28;20812;-91
2022/11/29 06:28:19;;;;;;;88.78;28.10;;;5.80;95.90;;;;;;5094705;28;20475;-92
2022/11/29 06:30:53;;;;;;;88.55;28.90;;;5.80;96.00;;;;;;5068515;28;20406;-92
2022/11/29 06:33:45;;;;;;;77.43;28.45;;;5.80;96.00;;;;;;5067237;28;20426;-93
2022/11/29 06:36:18;;;;;;;88.00;28.27;;;5.90;96.00;;;;;;5069460;28;20449;-92
2022/11/29 06:38:44;;;;;;;80.80;26.90;;;5.90;95.90;;;;;;5067466;28;20402;-93
2022/11/29 06:41:28;;;;;;;85.22;28.42;;;5.80;95.90;;;;;;5068508;28;20436;-92
2022/11/29 06:43:55;;;;;;;89.25;30.08;;;5.90;96.00;;;;;;5066018;28;20492;-93
2022/11/29 06:46:30;;;;;;;98.63;34.53;;;5.90;95.90;;;;;;5067749;28;20451;-93
2022/11/29 06:49:10;;;;;;;88.05;35.70;;;5.90;96.10;;;;;;5086531;28;20483;-92
2022/11/29 06:52:14;;;;;;;97.10;33.65;;;5.90;96.10;;;;;;5068052;28;20541;-91
2022/11/29 06:55:09;;;;;;;88.68;30.90;;;6.00;96.00;;;;;;5071947;28;20452;-92
2022/11/29 06:58:08;;;;;;;136.20;36.05;;;5.90;96.00;;;;;;5072999;28;20916;-92
2022/11/29 07:00:37;;;;;;;76.30;29.30;;;5.90;96.00;;;;;;5088047;28;20436;-92
2022/11/29 07:03:27;;;;;;;102.20;34.15;;;5.90;95.80;;;;;;5071448;28;20420;-93
2022/11/29 07:05:53;;;;;;;99.93;33.75;;;5.90;95.80;;;;;;5072658;28;20407;-91
2022/11/29 07:08:21;;;;;;;70.55;29.88;;;5.90;95.80;;;;;;5070218;28;20398;-92
2022/11/29 07:10:50;;;;;;;65.05;28.85;;;5.90;95.80;;;;;;5073170;28;20409;-92
2022/11/29 07:13:17;;;;;;;79.45;31.13;;;5.90;95.80;;;;;;5071011;28;20394;-92
2022/11/29 07:16:13;;;;;;;57.90;26.10;;;5.80;95.80;;;;;;5072539;28;20433;-92
2022/11/29 07:18:44;;;;;;;104.97;33.22;;;5.80;95.70;;;;;;5072634;28;20447;-92
2022/11/29 07:21:44;;;;;;;89.78;32.17;;;5.80;95.80;;;;;;5070690;28;20438;-91
2022/11/29 07:24:31;;;;;;;74.55;30.02;;;5.80;95.80;;;;;;5072629;28;20908;-92
2022/11/29 07:27:10;;;;;;;74.18;30.20;;;5.70;95.80;;;;;;5071802;28;20414;-93
2022/11/29 07:29:48;;;;;;;69.68;28.42;;;5.70;95.80;;;;;;5070411;28;20450;-93
2022/11/29 07:32:34;;;;;;;59.00;25.52;;;5.90;95.80;;;;;;5072265;28;20422;-91
2022/11/29 07:35:23;;;;;;;69.28;27.55;;;5.70;95.60;;;;;;5071153;28;20421;-90
2022/11/29 07:38:11;;;;;;;128.35;35.67;;;5.60;95.70;;;;;;5070571;28;20417;-94
2022/11/29 07:40:54;;;;;;;88.60;30.90;;;5.60;95.70;;;;;;5072178;28;20414;-92
2022/11/29 07:43:29;;;;;;;65.32;26.77;;;5.60;95.80;;;;;;5070309;28;20413;-91
2022/11/29 07:45:56;;;;;;;69.00;33.35;;;5.60;95.80;;;;;;5071646;28;20485;-92
2022/11/29 07:48:21;;;;;;;123.07;42.10;;;5.60;95.80;;;;;;5071407;28;20448;-92
2022/11/29 07:50:47;;;;;;;149.13;47.08;;;5.60;95.80;;;;;;5070766;28;20433;-92
2022/11/29 07:53:19;;;;;;;98.95;38.83;;;5.60;96.00;;;;;;5071709;28;20501;-91
2022/11/29 07:55:46;;;;;;;81.22;32.70;;;5.60;96.20;;;;;;5082372;28;20426;-92
2022/11/29 07:58:13;;;;;;;89.95;34.28;;;5.70;96.20;;;;;;5072012;28;20466;-92
2022/11/29 08:00:40;;;;;;;87.65;32.97;;;5.70;96.30;;;;;;5070192;28;20402;-91
2022/11/29 08:03:06;;;;;;;77.50;29.77;;;5.80;96.20;;;;;;5072466;28;20409;-91
2022/11/29 08:05:32;;;;;;;66.78;28.30;;;5.90;96.30;;;;;;5070901;28;20976;-92
2022/11/29 08:07:58;;;;;;;68.50;28.70;;;5.90;96.20;;;;;;5071043;28;20489;-93
2022/11/29 08:10:24;;;;;;;87.55;32.47;;;6.00;96.30;;;;;;5071942;28;20438;-91
2022/11/29 08:12:50;;;;;;;100.72;33.60;;;6.10;96.40;;;;;;5069973;28;20477;-91
2022/11/29 08:15:17;;;;;;;80.75;30.30;;;6.20;96.40;;;;;;5071873;28;20722;-91
2022/11/29 08:17:43;;;;;;;72.53;29.08;;;6.20;96.40;;;;;;5086593;28;20455;-92
2022/11/29 08:20:10;;;;;;;70.03;28.13;;;6.30;96.30;;;;;;5088759;28;20402;-92
2022/11/29 08:22:36;;;;;;;78.10;28.80;;;6.40;96.30;;;;;;5070111;28;20901;-91
2022/11/29 08:25:02;;;;;;;63.70;26.93;;;6.40;96.30;;;;;;5088133;28;20481;-92
2022/11/29 08:27:28;;;;;;;63.38;26.73;;;6.50;96.40;;;;;;5070735;28;20417;-92
2022/11/29 08:29:54;;;;;;;67.80;28.15;;;6.50;96.30;;;;;;5086921;28;20422;-91
2022/11/29 08:32:19;;;;;;;74.93;28.70;;;6.60;96.30;;;;;;5071565;28;20967;-92
2022/11/29 08:34:45;;;;;;;58.63;26.87;;;6.70;96.20;;;;;;5069341;28;20559;-92
2022/11/29 08:37:11;;;;;;;78.07;31.05;;;6.70;96.20;;;;;;5071236;28;20784;-93
2022/11/29 08:39:36;;;;;;;79.70;31.73;;;6.80;96.20;;;;;;5069301;28;20398;-91
2022/11/29 08:42:02;;;;;;;84.15;32.78;;;6.80;96.30;;;;;;5087574;28;20410;-91
2022/11/29 08:44:28;;;;;;;71.13;28.15;;;6.90;96.30;;;;;;5069992;28;20519;-91
2022/11/29 08:49:59;;;;;;;70.65;28.00;;;7.00;96.30;;;;;;5087926;28;20493;-91
2022/11/29 08:55:08;;;;;;;88.93;31.05;;;7.10;96.30;;;;;;5088135;28;20410;-92
2022/11/29 08:57:34;;;;;;;66.63;25.73;;;7.20;96.40;;;;;;5069775;28;20448;-92
2022/11/29 08:59:59;;;;;;;68.10;25.13;;;7.30;96.20;;;;;;5069567;28;20516;-93
2022/11/29 09:02:25;;;;;;;56.28;23.77;;;7.40;96.20;;;;;;5070741;28;20432;-91
2022/11/29 09:04:51;;;;;;;58.07;22.20;;;7.40;96.30;;;;;;5068923;28;20513;-92
2022/11/29 09:07:16;;;;;;;57.80;22.30;;;7.50;96.20;;;;;;5071125;28;20406;-91
2022/11/29 09:09:42;;;;;;;55.63;22.03;;;7.60;96.20;;;;;;5068320;28;20434;-92
2022/11/29 09:12:07;;;;;;;80.40;27.70;;;7.60;96.10;;;;;;5070936;28;20497;-92
2022/11/29 09:14:33;;;;;;;63.75;23.63;;;7.60;96.10;;;;;;5069008;28;20904;-91
2022/11/29 09:17:00;;;;;;;60.70;22.27;;;7.70;96.20;;;;;;5069988;28;20430;-92
2022/11/29 09:19:26;;;;;;;54.00;20.83;;;7.80;96.10;;;;;;5069729;28;20391;-92
2022/11/29 09:21:52;;;;;;;58.17;21.10;;;7.80;96.00;;;;;;5068894;28;20406;-91
2022/11/29 09:24:19;;;;;;;58.00;21.27;;;7.90;96.00;;;;;;5070321;28;20857;-91
2022/11/29 09:26:47;;;;;;;61.25;20.85;;;7.90;95.90;;;;;;5068411;28;20402;-92
2022/11/29 09:29:14;;;;;;;48.35;18.83;;;7.90;96.00;;;;;;5071162;28;20760;-90
2022/11/29 09:31:42;;;;;;;72.15;23.30;;;8.00;96.00;;;;;;5068079;28;20470;-91
2022/11/29 09:34:08;;;;;;;47.20;17.90;;;8.00;95.90;;;;;;5070251;28;20402;-92
2022/11/29 09:36:33;;;;;;;56.43;19.53;;;8.10;95.90;;;;;;5069249;28;20788;-92
2022/11/29 09:39:04;;;;;;;53.63;19.85;;;8.10;95.70;;;;;;5085719;28;20932;-92
2022/11/29 09:41:52;;;;;;;54.13;20.13;;;8.20;95.80;;;;;;5069987;28;20393;-92
2022/11/29 09:44:29;;;;;;;70.47;22.73;;;8.30;95.90;;;;;;5085346;28;20413;-92
2022/11/29 09:47:16;;;;;;;82.63;23.45;;;8.40;95.80;;;;;;5070065;28;20402;-95
2022/11/29 09:50:15;;;;;;;59.92;21.48;;;8.30;95.80;;;;;;5069327;28;21200;-93
2022/11/29 09:53:02;;;;;;;67.25;22.52;;;8.40;95.90;;;;;;5067779;28;20414;-93
2022/11/29 09:56:00;;;;;;;72.38;28.40;;;8.40;95.90;;;;;;5069700;28;20417;-92
2022/11/29 09:58:36;;;;;;;115.10;53.53;;;8.50;96.00;;;;;;5071438;28;20398;-92
2022/11/29 10:01:09;;;;;;;93.43;44.90;;;8.60;96.10;;;;;;5068341;28;20909;-92
2022/11/29 10:03:41;;;;;;;99.00;48.63;;;8.70;96.00;;;;;;5069952;28;20401;-92
2022/11/29 10:06:20;;;;;;;54.78;17.67;;;8.70;96.00;;;;;;5067311;28;20414;-91
2022/11/29 10:09:06;;;;;;;74.00;20.85;;;8.80;96.00;;;;;;5082346;28;20447;-94
2022/11/29 10:11:46;;;;;;;52.47;16.23;;;8.90;96.10;;;;;;5089974;28;20763;-92
2022/11/29 10:14:16;;;;;;;56.47;18.73;;;8.90;96.10;;;;;;5088382;28;20471;-91
2022/11/29 10:16:57;;;;;;;62.20;19.63;;;9.00;96.00;;;;;;5087879;28;20800;-93
2022/11/29 10:19:39;;;;;;;70.25;17.80;;;9.10;96.10;;;;;;5084629;28;20418;-93
2022/11/29 10:22:34;;;;;;;56.28;15.30;;;9.20;96.20;;;;;;5085760;28;20410;-92
2022/11/29 10:25:02;;;;;;;45.25;13.35;;;9.30;96.10;;;;;;5069643;28;20402;-92
2022/11/29 10:27:28;;;;;;;49.28;13.30;;;9.40;96.00;;;;;;5068974;28;20434;-92
2022/11/29 10:29:55;;;;;;;58.53;14.23;;;9.50;96.00;;;;;;5090409;28;20402;-92
2022/11/29 10:32:24;;;;;;;46.65;13.18;;;9.40;95.90;;;;;;5070965;28;20410;-91
2022/11/29 10:34:50;;;;;;;55.33;15.82;;;9.80;96.00;;;;;;5073736;28;20429;-92
2022/11/29 10:37:21;;;;;;;63.67;14.85;;;9.60;96.00;;;;;;5089600;28;20889;-91
2022/11/29 10:39:53;;;;;;;50.70;12.98;;;9.70;95.90;;;;;;5071954;28;20441;-92
2022/11/29 10:45:32;;;;;;;44.72;12.95;;;9.70;95.80;;;;;;5087697;28;20418;-90
2022/11/29 10:48:06;;;;;;;38.55;11.55;;;9.70;95.70;;;;;;5072970;28;20432;-93
2022/11/29 10:50:34;;;;;;;48.50;13.18;;;9.80;95.60;;;;;;5072926;28;20461;-93
2022/11/29 10:53:09;;;;;;;43.75;11.68;;;9.80;95.70;;;;;;5071886;28;20968;-93
2022/11/29 10:55:49;;;;;;;52.33;13.07;;;10.00;95.50;;;;;;5087659;28;20404;-91
2022/11/29 10:58:18;;;;;;;37.40;12.05;;;10.00;95.30;;;;;;5089784;28;20495;-92
2022/11/29 11:01:05;;;;;;;40.58;11.63;;;10.00;95.40;;;;;;5092989;28;20412;-92
2022/11/29 11:03:41;;;;;;;42.65;12.68;;;10.10;95.50;;;;;;5091319;28;20533;-91
2022/11/29 11:06:17;;;;;;;42.97;13.65;;;10.30;95.70;;;;;;5090897;28;20451;-93
2022/11/29 11:08:45;;;;;;;39.60;14.02;;;10.40;95.50;;;;;;5093271;28;20538;-93
2022/11/29 11:11:12;;;;;;;32.00;11.98;;;10.50;95.40;;;;;;5090879;28;20959;-92
2022/11/29 11:13:39;;;;;;;36.42;13.75;;;10.50;95.30;;;;;;5092934;28;20891;-92
2022/11/29 11:16:15;;;;;;;36.35;13.02;;;10.50;95.30;;;;;;5091806;28;20435;-91
2022/11/29 11:18:41;;;;;;;38.60;13.90;;;10.50;95.20;;;;;;5108784;28;20412;-93
2022/11/29 11:21:10;;;;;;;42.38;14.70;;;10.50;95.20;;;;;;5092634;28;20412;-92
2022/11/29 11:23:41;;;;;;;32.15;12.63;;;10.50;95.20;;;;;;5108036;28;20418;-91
2022/11/29 11:26:11;;;;;;;34.55;13.93;;;10.50;95.10;;;;;;5093158;28;20439;-91
2022/11/29 11:28:58;;;;;;;33.22;15.93;;;10.60;95.00;;;;;;5084962;28;20400;-91
2022/11/29 11:31:33;;;;;;;32.60;17.45;;;10.60;94.80;;;;;;5091242;28;20438;-93
2022/11/29 11:34:24;;;;;;;23.10;14.60;;;10.60;94.80;;;;;;5090934;28;20440;-91
2022/11/29 11:36:50;;;;;;;40.93;22.03;;;10.60;94.40;;;;;;5085827;28;20436;-91
2022/11/29 11:39:21;;;;;;;34.90;20.30;;;10.60;94.80;;;;;;5071688;28;20452;-94
2022/11/29 11:44:48;;;;;;;19.15;14.65;;;10.70;94.00;;;;;;5088316;28;20418;-91
2022/11/29 11:47:24;;;;;;;27.23;18.80;;;11.00;94.10;;;;;;5089100;28;20772;-92
2022/11/29 11:50:05;;;;;;;19.90;15.23;;;11.20;94.30;;;;;;5087087;28;20429;-92
2022/11/29 11:52:40;;;;;;;17.50;13.00;;;11.70;94.00;;;;;;5089330;28;20433;-93
2022/11/29 11:55:20;;;;;;;17.08;12.93;;;12.10;92.00;;;;;;5088106;28;20406;-91
2022/11/29 11:58:11;;;;;;;12.73;10.25;;;12.10;91.30;;;;;;5087223;28;20509;-92
2022/11/29 12:00:47;;;;;;;14.85;11.93;;;12.00;90.80;;;;;;5088824;28;20459;-93
2022/11/29 12:03:34;;;;;;;19.50;14.50;;;11.80;91.30;;;;;;5086972;28;20433;-93
2022/11/29 12:06:18;;;;;;;20.20;15.75;;;11.60;92.20;;;;;;5088304;28;20446;-93
2022/11/29 12:08:47;;;;;;;18.95;15.02;;;11.60;92.50;;;;;;5088775;28;21020;-91
2022/11/29 12:11:16;;;;;;;14.25;11.18;;;11.50;92.70;;;;;;5086965;28;20456;-91
2022/11/29 12:13:47;;;;;;;21.52;15.15;;;11.40;92.10;;;;;;5089059;28;20402;-92
2022/11/29 12:16:27;;;;;;;18.00;13.80;;;11.30;92.50;;;;;;5086581;28;20433;-92
2022/11/29 12:19:10;;;;;;;17.00;12.30;;;11.30;92.50;;;;;;5088782;28;21312;-93
2022/11/29 12:21:42;;;;;;;15.95;12.40;;;11.30;92.50;;;;;;5088297;28;20827;-91
2022/11/29 12:24:26;;;;;;;17.35;14.52;;;11.20;92.70;;;;;;5086964;28;20398;-91
2022/11/29 12:26:56;;;;;;;17.47;12.97;;;11.20;92.80;;;;;;5088649;28;20406;-91
2022/11/29 12:29:25;;;;;;;13.85;11.93;;;11.10;92.80;;;;;;5086546;28;20422;-91
2022/11/29 12:31:58;;;;;;;11.18;9.80;;;11.10;92.60;;;;;;5088024;28;20919;-91
2022/11/29 12:34:44;;;;;;;13.95;10.50;;;11.10;92.20;;;;;;5070953;28;20410;-91
2022/11/29 12:37:29;;;;;;;16.67;12.88;;;11.10;92.40;;;;;;5086148;28;20517;-91
2022/11/29 12:40:22;;;;;;;16.40;14.38;;;11.10;92.80;;;;;;5104909;28;20405;-92
2022/11/29 12:43:12;;;;;;;12.85;10.80;;;11.20;93.40;;;;;;5087348;28;20772;-92
2022/11/29 12:45:53;;;;;;;18.60;14.88;;;11.30;93.00;;;;;;5086570;28;20409;-92
2022/11/29 12:48:36;;;;;;;10.30;8.52;;;11.30;93.10;;;;;;5088057;28;20421;-92
2022/11/29 12:51:13;;;;;;;17.45;15.05;;;11.40;92.30;;;;;;5068514;28;20418;-91
2022/11/29 12:54:08;;;;;;;13.43;10.82;;;11.40;93.20;;;;;;5087100;28;20406;-91
2022/11/29 12:57:03;;;;;;;10.45;7.57;;;11.60;92.80;;;;;;5087765;28;20429;-89
2022/11/29 12:59:43;;;;;;;7.35;6.25;;;11.60;91.60;;;;;;5069270;28;20421;-92
2022/11/29 13:02:30;;;;;;;8.55;6.30;;;11.60;91.00;;;;;;5070521;28;20406;-92
2022/11/29 13:05:21;;;;;;;6.40;5.60;;;11.40;91.20;;;;;;5070766;28;20402;-91
2022/11/29 13:08:17;;;;;;;8.83;6.70;;;11.30;90.60;;;;;;5068624;28;20425;-92
2022/11/29 13:11:15;;;;;;;9.48;8.18;;;11.20;92.10;;;;;;5070429;28;20481;-91
2022/11/29 13:13:56;;;;;;;6.90;6.18;;;11.20;92.00;;;;;;5070600;28;20402;-91
2022/11/29 13:16:34;;;;;;;6.82;6.10;;;11.10;92.30;;;;;;5068526;28;20452;-91
2022/11/29 13:19:19;;;;;;;5.78;5.20;;;11.10;92.30;;;;;;5070513;28;20464;-92
2022/11/29 13:22:06;;;;;;;5.38;4.85;;;11.00;92.40;;;;;;5069499;28;20438;-90
2022/11/29 13:24:45;;;;;;;9.30;8.52;;;11.00;91.70;;;;;;5068910;28;20414;-91
2022/11/29 13:27:26;;;;;;;8.50;7.70;;;10.90;92.00;;;;;;5087287;28;20418;-92
2022/11/29 13:29:53;;;;;;;9.00;8.30;;;10.80;92.00;;;;;;5073184;28;20404;-90
2022/11/29 13:32:35;;;;;;;7.93;7.30;;;10.80;92.30;;;;;;5106864;28;20551;-90
2022/11/29 13:35:24;;;;;;;6.75;6.15;;;10.80;92.40;;;;;;5070329;28;20405;-89